Time;durP1;ratioP1;P1;durP2;ratioP2;P2;SDS_P1;SDS_P2;PMS_P1;PMS_P2;Temp;Humidity;BMP_temperature;BMP_pressure;BME280_temperature;BME280_humidity;BME280_pressure;Samples;Min_cycle;Max_cycle;Signal;HPM_P1;HPM_P2
2023/12/21 00:00:23;;;;;;;0.93;0.70;;;10.70;99.70;;;12.36;74.58;99980.16;3082890;46;20435;-69
2023/12/21 00:02:52;;;;;;;1.53;0.90;;;10.70;99.70;;;12.39;74.57;99979.72;3083083;46;20431;-69
2023/12/21 00:05:20;;;;;;;1.73;1.00;;;10.70;99.70;;;12.42;74.44;99982.78;3083076;46;20439;-70
2023/12/21 00:07:48;;;;;;;1.73;1.20;;;10.80;99.70;;;12.44;74.62;99987.84;3082356;46;20463;-68
2023/12/21 00:10:18;;;;;;;1.40;0.97;;;10.80;99.70;;;12.46;74.45;99983.16;3082915;46;21077;-68
2023/12/21 00:12:46;;;;;;;2.77;1.07;;;10.80;99.70;;;12.46;74.26;99985.78;3082674;46;20478;-68
2023/12/21 00:15:15;;;;;;;2.23;1.00;;;10.80;99.60;;;12.48;74.65;99975.88;3082608;46;20428;-68
2023/12/21 00:17:43;;;;;;;5.37;1.37;;;10.80;99.60;;;12.51;74.31;99967.53;3082134;46;20447;-69
2023/12/21 00:20:12;;;;;;;2.97;1.50;;;10.90;99.60;;;12.53;74.62;99968.13;3082390;46;20452;-69
2023/12/21 00:22:41;;;;;;;3.33;1.00;;;10.90;99.60;;;12.53;74.18;99949.63;3082958;46;20426;-69
2023/12/21 00:25:09;;;;;;;2.13;1.00;;;10.90;99.50;;;12.54;74.48;99938.91;3082925;46;20431;-68
2023/12/21 00:27:38;;;;;;;0.93;0.87;;;10.90;99.50;;;12.54;74.02;99938.91;3082224;46;21014;-69
2023/12/21 00:30:08;;;;;;;2.50;1.20;;;10.90;99.50;;;12.55;74.39;99939.72;3082633;43;20508;-69
2023/12/21 00:32:36;;;;;;;2.27;1.33;;;10.90;99.50;;;12.56;74.36;99939.50;3082008;46;20456;-68
2023/12/21 00:35:05;;;;;;;3.40;1.23;;;10.90;99.50;;;12.57;74.21;99945.59;3082435;46;20429;-69
2023/12/21 00:37:36;;;;;;;4.67;1.40;;;10.90;99.50;;;12.56;74.11;99939.50;3082362;46;20443;-70
2023/12/21 00:40:06;;;;;;;1.87;1.27;;;10.90;99.50;;;12.58;74.32;99947.19;3082406;46;21076;-69
2023/12/21 00:42:36;;;;;;;1.60;1.20;;;10.90;99.50;;;12.58;74.09;99926.09;3081684;46;20429;-69
2023/12/21 00:45:06;;;;;;;2.13;1.13;;;11.00;99.50;;;12.58;73.94;99937.47;3082622;46;21087;-69
2023/12/21 00:47:34;;;;;;;1.87;1.00;;;11.00;99.50;;;12.59;74.24;99927.72;3081848;46;20475;-69
2023/12/21 00:50:03;;;;;;;1.97;1.17;;;11.00;99.50;;;12.59;73.90;99911.88;3082426;46;20577;-68
2023/12/21 00:52:32;;;;;;;2.30;1.40;;;11.00;99.50;;;12.60;74.15;99913.50;3082474;46;20460;-69
2023/12/21 00:55:00;;;;;;;2.27;1.03;;;11.00;99.50;;;12.60;74.17;99910.88;3082600;46;20517;-68
2023/12/21 00:57:29;;;;;;;2.03;1.17;;;11.00;99.50;;;12.62;74.10;99908.81;3082173;46;20517;-68
2023/12/21 00:59:57;;;;;;;2.87;1.43;;;10.90;99.40;;;12.61;73.96;99899.28;3082651;46;21096;-69
2023/12/21 01:02:26;;;;;;;1.70;1.20;;;11.00;99.40;;;12.61;73.65;99910.66;3082192;46;20990;-69
2023/12/21 01:04:54;;;;;;;1.40;1.30;;;11.00;99.40;;;12.62;74.02;99916.75;3081753;46;20434;-69
2023/12/21 01:07:23;;;;;;;2.13;1.20;;;11.00;99.40;;;12.62;73.87;99911.47;3081909;46;20442;-68
2023/12/21 01:09:51;;;;;;;1.93;1.27;;;11.00;99.40;;;12.62;74.13;99906.19;3082272;46;20443;-68
2023/12/21 01:12:20;;;;;;;3.27;1.20;;;11.00;99.50;;;12.61;73.81;99894.00;3082303;46;20431;-69
2023/12/21 01:14:48;;;;;;;1.30;1.07;;;11.00;99.50;;;12.61;73.83;99888.72;3081972;46;20456;-69
2023/12/21 01:17:17;;;;;;;1.47;1.17;;;11.00;99.40;;;12.61;73.98;99883.44;3081654;46;21010;-67
2023/12/21 01:19:45;;;;;;;1.73;1.07;;;11.00;99.40;;;12.60;74.18;99887.91;3081970;46;20478;-69
2023/12/21 01:22:16;;;;;;;1.83;1.00;;;11.00;99.40;;;12.62;73.97;99879.78;3081897;46;20431;-69
2023/12/21 01:24:45;;;;;;;7.47;1.67;;;11.00;99.50;;;12.64;73.84;99883.03;3081875;46;20452;-69
2023/12/21 01:27:14;;;;;;;4.00;1.40;;;11.00;99.40;;;12.64;73.88;99872.47;3081526;46;20440;-69
2023/12/21 01:29:58;;;;;;;3.67;1.63;;;11.00;99.50;;;12.64;73.91;99872.47;3082054;46;21022;-68
2023/12/21 01:32:26;;;;;;;3.23;1.63;;;11.00;99.40;;;12.66;73.66;99857.22;3082213;46;20582;-68
2023/12/21 01:34:55;;;;;;;2.40;1.30;;;11.00;99.40;;;12.68;73.84;99855.19;3081846;46;21013;-69
2023/12/21 01:37:23;;;;;;;6.43;1.80;;;11.00;99.40;;;12.69;74.14;99854.97;3081750;46;20530;-69
2023/12/21 01:39:51;;;;;;;3.77;1.83;;;11.00;99.30;;;12.67;73.50;99840.38;3082317;46;20431;-68
2023/12/21 01:42:20;;;;;;;5.43;1.90;;;11.00;99.30;;;12.70;73.89;99845.22;3080512;46;20432;-69
2023/12/21 01:44:49;;;;;;;5.70;2.17;;;11.00;99.30;;;12.69;73.47;99827.78;3082103;46;21124;-68
2023/12/21 01:47:17;;;;;;;6.73;2.57;;;11.10;99.20;;;12.69;73.64;99825.91;3081836;46;20467;-68
2023/12/21 01:49:46;;;;;;;8.77;2.03;;;11.00;99.20;;;12.68;73.75;99836.69;3080857;46;20497;-68
2023/12/21 01:52:16;;;;;;;10.90;2.80;;;11.00;99.20;;;12.68;73.70;99826.13;3080984;46;20445;-68
2023/12/21 01:54:44;;;;;;;4.43;2.53;;;11.10;99.20;;;12.68;73.82;99821.69;3082093;46;20458;-70
2023/12/21 01:57:13;;;;;;;3.77;1.97;;;11.10;99.20;;;12.70;73.84;99829.38;3081058;46;20492;-68
2023/12/21 01:59:42;;;;;;;2.77;1.50;;;11.10;99.20;;;12.70;73.40;99830.19;3082052;46;20444;-68
2023/12/21 02:02:10;;;;;;;3.57;1.60;;;11.10;99.20;;;12.71;73.54;99826.53;3080642;46;20455;-69
2023/12/21 02:04:39;;;;;;;3.73;1.90;;;11.10;99.20;;;12.70;73.45;99811.72;3081512;46;20490;-68
2023/12/21 02:07:07;;;;;;;6.07;2.03;;;11.10;99.10;;;12.70;73.14;99808.25;3081251;46;20524;-68
2023/12/21 02:09:36;;;;;;;4.40;2.30;;;11.10;99.10;;;12.68;73.36;99805.00;3081909;46;20456;-70
2023/12/21 02:12:04;;;;;;;4.40;2.23;;;11.10;99.20;;;12.68;73.56;99807.66;3081677;46;20456;-69
2023/12/21 02:14:33;;;;;;;7.07;2.53;;;11.10;99.10;;;12.65;73.57;99795.69;3081525;46;20999;-69
2023/12/21 02:17:12;;;;;;;4.97;2.60;;;11.10;99.10;;;12.63;73.45;99802.19;3081334;46;20440;-68
2023/12/21 02:19:41;;;;;;;6.90;2.67;;;11.00;99.10;;;12.65;73.73;99790.41;3081428;46;20456;-68
2023/12/21 02:22:15;;;;;;;4.07;2.00;;;11.10;99.10;;;12.64;73.73;99774.78;3081279;46;20438;-69
2023/12/21 02:24:44;;;;;;;6.27;2.77;;;11.10;99.10;;;12.64;73.43;99770.31;3081039;46;20518;-69
2023/12/21 02:27:12;;;;;;;8.47;2.57;;;11.00;99.10;;;12.64;73.74;99766.88;3081481;46;20519;-68
2023/12/21 02:29:41;;;;;;;8.43;2.20;;;11.00;99.10;;;12.64;73.64;99759.75;3081726;46;20465;-71
2023/12/21 02:32:09;;;;;;;5.63;2.80;;;11.00;99.10;;;12.64;73.46;99761.59;3081590;46;20428;-68
2023/12/21 02:34:37;;;;;;;5.80;2.70;;;11.00;99.10;;;12.65;73.58;99768.47;3080985;46;20432;-69
2023/12/21 02:37:06;;;;;;;7.43;2.70;;;11.00;99.10;;;12.66;73.65;99764.81;3080889;46;20448;-68
2023/12/21 02:39:34;;;;;;;9.13;3.70;;;11.00;99.10;;;12.70;73.70;99760.72;3081169;46;20427;-68
2023/12/21 02:42:03;;;;;;;7.50;2.93;;;11.00;99.10;;;12.74;73.18;99751.38;3081091;46;20431;-69
2023/12/21 02:44:32;;;;;;;8.03;3.03;;;11.10;99.10;;;12.75;73.40;99737.13;3081636;46;20460;-68
2023/12/21 02:47:00;;;;;;;5.47;3.20;;;11.00;99.00;;;12.76;72.92;99754.63;3080789;46;20438;-69
2023/12/21 02:49:29;;;;;;;8.70;2.60;;;11.10;99.00;;;12.77;73.11;99740.38;3080952;46;20452;-69
2023/12/21 02:51:57;;;;;;;6.87;2.80;;;11.10;99.00;;;12.75;72.86;99743.25;3081177;46;20520;-69
2023/12/21 02:54:26;;;;;;;6.20;3.17;;;11.10;98.90;;;12.75;72.93;99729.22;3081278;46;20442;-68
2023/12/21 02:56:54;;;;;;;5.23;2.53;;;11.10;99.10;;;12.75;72.87;99737.13;3081151;46;20439;-68
2023/12/21 02:59:23;;;;;;;3.90;3.10;;;11.10;98.90;;;12.72;72.78;99719.06;3080438;46;21029;-68
2023/12/21 03:01:51;;;;;;;5.57;2.70;;;11.10;99.00;;;12.72;72.98;99711.16;3081121;46;20451;-68
2023/12/21 03:04:20;;;;;;;3.63;2.43;;;11.10;99.00;;;12.72;72.94;99713.78;3081099;46;20481;-69
2023/12/21 03:06:48;;;;;;;5.60;2.73;;;11.10;98.90;;;12.70;73.10;99689.44;3080965;46;20597;-68
2023/12/21 03:09:18;;;;;;;10.70;2.60;;;11.10;99.00;;;12.71;73.00;99677.88;3081079;46;20477;-69
2023/12/21 03:11:46;;;;;;;4.57;2.50;;;11.10;99.00;;;12.71;73.30;99680.50;3081284;46;20440;-68
2023/12/21 03:14:15;;;;;;;4.83;2.33;;;11.10;99.00;;;12.71;73.00;99677.88;3081208;46;20469;-67
2023/12/21 03:16:43;;;;;;;6.43;3.00;;;11.10;99.00;;;12.72;73.03;99671.56;3080706;46;20499;-68
2023/12/21 03:19:12;;;;;;;4.53;2.27;;;11.00;99.00;;;12.72;73.46;99661.00;3080983;46;20428;-68
2023/12/21 03:21:40;;;;;;;6.73;2.40;;;11.00;99.00;;;12.74;72.95;99657.13;3081130;46;20427;-68
2023/12/21 03:24:09;;;;;;;8.13;3.07;;;11.10;99.00;;;12.76;73.03;99649.00;3080919;46;20460;-68
2023/12/21 03:26:37;;;;;;;3.67;2.57;;;11.10;99.00;;;12.75;72.81;99642.09;3080752;46;20456;-69
2023/12/21 03:29:06;;;;;;;6.90;2.47;;;11.10;98.90;;;12.77;72.85;99640.03;3082809;46;20530;-69
2023/12/21 03:31:35;;;;;;;7.53;2.90;;;11.10;98.90;;;12.78;73.07;99646.94;3083426;46;20430;-69
2023/12/21 03:34:03;;;;;;;5.70;2.47;;;11.10;98.90;;;12.77;72.95;99634.75;3083252;46;20428;-70
2023/12/21 03:36:32;;;;;;;4.43;2.60;;;11.10;98.90;;;12.75;72.86;99619.13;3083040;46;20606;-69
2023/12/21 03:39:00;;;;;;;7.27;2.67;;;11.10;98.80;;;12.75;72.75;99626.25;3083277;46;21023;-68
2023/12/21 03:41:29;;;;;;;5.20;2.63;;;11.10;98.80;;;12.76;72.86;99619.97;3082630;46;20455;-69
2023/12/21 03:43:58;;;;;;;9.23;3.37;;;11.10;98.70;;;12.76;72.92;99622.59;3083027;46;20600;-68
2023/12/21 03:46:26;;;;;;;4.23;2.63;;;11.10;98.70;;;12.77;72.41;99613.63;3083089;46;20584;-68
2023/12/21 03:48:55;;;;;;;11.07;3.87;;;11.20;98.80;;;12.77;72.47;99598.59;3083052;46;20522;-68
2023/12/21 03:51:24;;;;;;;7.00;2.80;;;11.10;98.70;;;12.78;72.81;99594.94;3083077;46;20561;-69
2023/12/21 03:53:52;;;;;;;5.03;3.73;;;11.10;98.70;;;12.79;72.80;99586.00;3083649;46;20444;-68
2023/12/21 03:56:21;;;;;;;7.00;3.50;;;11.20;98.70;;;12.81;72.55;99577.88;3083018;43;20451;-68
2023/12/21 03:58:49;;;;;;;7.93;4.30;;;11.20;98.70;;;12.82;72.61;99566.25;3082687;46;20514;-67
2023/12/21 04:01:29;;;;;;;6.63;4.27;;;11.20;98.70;;;12.81;72.39;99559.38;3082867;46;20436;-68
2023/12/21 04:03:58;;;;;;;5.20;4.00;;;11.20;98.70;;;12.82;72.21;99551.22;3082780;46;20525;-68
2023/12/21 04:06:26;;;;;;;5.80;4.20;;;11.20;98.80;;;12.82;72.27;99555.69;3082816;46;20431;-68
2023/12/21 04:08:54;;;;;;;4.37;3.90;;;11.20;98.70;;;12.81;72.19;99562.03;3082975;46;20461;-68
2023/12/21 04:11:23;;;;;;;8.47;4.80;;;11.20;98.70;;;12.77;72.64;99555.53;3083086;46;20537;-69
2023/12/21 04:13:51;;;;;;;6.37;4.53;;;11.20;98.70;;;12.75;72.47;99555.78;3083179;46;20432;-69
2023/12/21 04:16:19;;;;;;;7.37;4.60;;;11.20;98.70;;;12.73;72.70;99549.09;3082761;46;20553;-68
2023/12/21 04:18:48;;;;;;;8.10;4.27;;;11.20;98.80;;;12.74;72.41;99553.38;3082396;46;20442;-68
2023/12/21 04:21:16;;;;;;;6.30;4.13;;;11.20;98.80;;;12.74;72.72;99545.44;3083072;46;20514;-68
2023/12/21 04:23:46;;;;;;;6.30;3.83;;;11.10;98.70;;;12.74;72.53;99540.94;3082910;46;20470;-68
2023/12/21 04:26:20;;;;;;;5.17;3.40;;;11.10;98.80;;;12.73;72.83;99539.34;3082920;46;20452;-67
2023/12/21 04:28:49;;;;;;;7.10;3.60;;;11.10;99.10;;;12.74;72.80;99534.88;3082453;46;20504;-68
2023/12/21 04:31:22;;;;;;;4.10;3.50;;;11.10;98.80;;;12.74;72.67;99516.41;3082099;46;20428;-68
2023/12/21 04:33:52;;;;;;;3.67;3.27;;;11.10;98.90;;;12.73;72.76;99506.84;3082177;46;20549;-68
2023/12/21 04:36:21;;;;;;;4.30;3.03;;;11.10;98.90;;;12.73;72.79;99512.13;3081565;46;21150;-68
2023/12/21 04:38:52;;;;;;;3.80;3.37;;;11.10;98.80;;;12.71;72.85;99498.34;3082672;46;20528;-67
2023/12/21 04:41:21;;;;;;;7.43;3.67;;;11.10;98.90;;;12.67;73.01;99486.63;3081680;46;20579;-67
2023/12/21 04:43:49;;;;;;;4.60;2.90;;;11.10;98.90;;;12.65;72.93;99478.91;3082414;46;20513;-68
2023/12/21 04:46:18;;;;;;;4.83;3.00;;;11.10;99.00;;;12.64;72.81;99471.22;3082830;46;20456;-68
2023/12/21 04:48:46;;;;;;;3.97;2.50;;;11.10;99.00;;;12.62;73.21;99460.06;3081623;46;21094;-68
2023/12/21 04:51:16;;;;;;;3.93;2.80;;;11.00;98.90;;;12.57;73.54;99454.63;3082681;46;20456;-68
2023/12/21 04:53:44;;;;;;;5.03;2.83;;;11.10;98.90;;;12.56;73.33;99447.72;3082416;46;21022;-68
2023/12/21 04:56:12;;;;;;;2.87;2.67;;;11.00;99.00;;;12.55;73.34;99435.56;3082365;46;20427;-68
2023/12/21 04:58:42;;;;;;;4.50;3.17;;;11.00;99.00;;;12.53;73.56;99424.41;3081958;46;21087;-68
2023/12/21 05:01:10;;;;;;;2.87;2.57;;;11.00;99.10;;;12.52;73.51;99425.44;3082221;46;20526;-70
2023/12/21 05:03:39;;;;;;;3.17;2.87;;;11.00;99.10;;;12.53;73.58;99437.59;3082125;46;21062;-68
2023/12/21 05:06:07;;;;;;;3.03;2.40;;;11.00;99.20;;;12.52;74.16;99436.00;3082309;46;20439;-68
2023/12/21 05:08:36;;;;;;;2.70;2.27;;;11.00;99.20;;;12.51;73.68;99429.09;3081774;43;20439;-69
2023/12/21 05:11:04;;;;;;;2.20;2.03;;;11.00;99.30;;;12.49;73.87;99417.97;3081961;46;20451;-68
2023/12/21 05:13:33;;;;;;;2.00;1.70;;;11.00;99.30;;;12.46;73.97;99400.72;3082012;46;20526;-68
2023/12/21 05:16:01;;;;;;;1.80;1.70;;;10.90;99.30;;;12.48;74.28;99395.25;3082087;46;20423;-68
2023/12/21 05:18:30;;;;;;;2.50;1.93;;;11.00;99.40;;;12.46;73.99;99390.19;3081521;46;21113;-68
2023/12/21 05:20:58;;;;;;;2.87;1.63;;;11.00;99.40;;;12.46;74.22;99384.09;3082306;46;20869;-68
2023/12/21 05:23:26;;;;;;;1.87;1.70;;;10.90;99.40;;;12.43;74.52;99366.06;3082188;46;20431;-68
2023/12/21 05:25:55;;;;;;;2.00;1.87;;;10.90;99.40;;;12.41;74.56;99354.94;3082107;46;21079;-68
2023/12/21 05:28:23;;;;;;;2.30;1.50;;;10.90;99.50;;;12.40;74.33;99353.31;3081280;46;20471;-68
2023/12/21 05:30:51;;;;;;;2.30;2.17;;;10.90;99.60;;;12.40;74.65;99337.47;3081787;46;20432;-68
2023/12/21 05:33:20;;;;;;;5.40;2.00;;;10.90;99.60;;;12.39;74.43;99336.66;3081974;46;20432;-69
2023/12/21 05:35:48;;;;;;;2.47;2.10;;;10.90;99.60;;;12.40;74.79;99342.75;3081937;46;20557;-68
2023/12/21 05:38:17;;;;;;;3.13;1.63;;;10.90;99.60;;;12.39;74.58;99343.78;3081548;46;20444;-68
2023/12/21 05:40:45;;;;;;;3.13;1.73;;;10.90;99.60;;;12.39;74.61;99325.31;3081811;46;20427;-68
2023/12/21 05:43:13;;;;;;;1.70;1.60;;;10.90;99.60;;;12.38;74.81;99311.34;3082074;46;20978;-68
2023/12/21 05:45:42;;;;;;;2.17;1.97;;;10.90;99.60;;;12.40;74.78;99304.00;3081936;46;21001;-68
2023/12/21 05:48:11;;;;;;;1.90;1.80;;;10.90;99.70;;;12.42;74.84;99293.22;3081472;46;20461;-66
2023/12/21 05:50:39;;;;;;;2.77;1.93;;;10.90;99.70;;;12.41;74.51;99281.06;3081302;46;20431;-68
2023/12/21 05:53:08;;;;;;;2.00;1.73;;;10.90;99.70;;;12.42;74.91;99272.09;3081991;46;20443;-68
2023/12/21 05:55:36;;;;;;;2.70;2.00;;;10.90;99.70;;;12.43;74.95;99271.88;3081824;46;20480;-67
2023/12/21 05:58:04;;;;;;;1.77;1.67;;;10.90;99.70;;;12.44;74.78;99260.28;3081061;46;20444;-69
2023/12/21 06:00:34;;;;;;;1.60;1.50;;;10.90;99.90;;;12.44;74.89;99255.03;3081737;46;21203;-68
2023/12/21 06:03:03;;;;;;;1.93;1.80;;;10.90;99.70;;;12.46;74.90;99247.69;3081462;46;21095;-68
2023/12/21 06:05:32;;;;;;;1.70;1.60;;;10.90;99.70;;;12.46;75.03;99244.22;3081429;46;20493;-68
2023/12/21 06:08:00;;;;;;;1.87;1.60;;;10.90;99.70;;;12.45;74.97;99214.41;3081048;46;20465;-68
2023/12/21 06:10:29;;;;;;;1.63;1.50;;;10.90;99.70;;;12.47;74.68;99206.28;3081784;46;20429;-68
2023/12/21 06:12:57;;;;;;;1.30;1.20;;;10.90;99.80;;;12.47;74.69;99190.44;3081382;43;20427;-68
2023/12/21 06:15:26;;;;;;;3.17;1.57;;;10.90;99.70;;;12.48;74.90;99173.59;3081858;46;20440;-67
2023/12/21 06:17:54;;;;;;;1.57;1.47;;;11.00;99.80;;;12.49;74.93;99183.09;3080849;46;21048;-68
2023/12/21 06:20:22;;;;;;;4.07;1.60;;;10.90;99.70;;;12.49;75.04;99164.63;3081736;46;20431;-68
2023/12/21 06:22:51;;;;;;;1.93;1.37;;;11.00;99.70;;;12.51;75.02;99154.63;3081054;46;20476;-68
2023/12/21 06:25:19;;;;;;;1.60;1.50;;;10.90;99.70;;;12.52;74.96;99145.72;3081415;46;20452;-68
2023/12/21 06:27:48;;;;;;;2.00;1.77;;;11.00;99.80;;;12.52;74.76;99135.97;3081001;46;20451;-68
2023/12/21 06:30:16;;;;;;;2.13;1.40;;;11.00;99.80;;;12.49;74.87;99125.84;3081381;46;20489;-68
2023/12/21 06:32:45;;;;;;;1.50;1.37;;;10.90;99.70;;;12.51;74.70;99118.50;3081623;46;21017;-68
2023/12/21 06:35:13;;;;;;;1.97;1.47;;;11.00;99.70;;;12.53;74.72;99110.34;3081337;46;20543;-68
2023/12/21 06:37:42;;;;;;;1.50;1.40;;;11.00;99.70;;;12.53;74.63;99105.06;3080627;46;20538;-68
2023/12/21 06:40:11;;;;;;;1.80;1.70;;;11.00;99.70;;;12.54;74.93;99091.66;3081182;46;20428;-68
2023/12/21 06:42:39;;;;;;;1.40;1.30;;;11.00;99.70;;;12.53;74.70;99083.97;3080658;46;20996;-68
2023/12/21 06:45:09;;;;;;;1.40;1.30;;;11.00;99.70;;;12.54;74.82;99075.03;3081272;46;20518;-67
2023/12/21 06:47:37;;;;;;;1.27;1.20;;;11.00;99.80;;;12.49;74.89;99053.78;3080891;46;20983;-68
2023/12/21 06:50:07;;;;;;;1.27;1.13;;;11.00;99.70;;;12.49;74.93;99035.31;3081086;46;20485;-68
2023/12/21 06:52:36;;;;;;;1.17;1.17;;;11.00;99.70;;;12.49;74.89;99024.75;3081531;46;20473;-68
2023/12/21 06:55:05;;;;;;;1.40;1.30;;;11.00;99.60;;;12.49;75.02;99024.75;3081305;46;20562;-68
2023/12/21 06:57:34;;;;;;;1.87;1.37;;;11.00;99.60;;;12.48;75.02;99013.41;3080752;43;20439;-68
2023/12/21 07:00:04;;;;;;;1.50;1.30;;;11.00;99.60;;;12.50;75.28;99005.28;3080956;46;20456;-67
2023/12/21 07:02:33;;;;;;;1.63;1.20;;;11.00;99.70;;;12.48;74.91;99002.06;3080153;46;20431;-67
2023/12/21 07:05:02;;;;;;;0.90;0.90;;;11.00;99.70;;;12.47;74.79;98989.91;3081080;46;20442;-68
2023/12/21 07:07:30;;;;;;;0.93;0.93;;;11.00;99.90;;;12.45;75.41;98981.41;3080697;46;20976;-68
2023/12/21 07:09:58;;;;;;;1.50;0.90;;;11.00;99.60;;;12.45;75.10;98973.50;3081462;46;21146;-68
2023/12/21 07:12:27;;;;;;;1.07;0.97;;;11.00;99.60;;;12.44;75.16;98969.22;3081320;46;20427;-68
2023/12/21 07:14:55;;;;;;;1.40;1.10;;;11.00;99.60;;;12.45;75.20;98960.28;3081403;46;20976;-68
2023/12/21 07:17:24;;;;;;;1.23;1.13;;;11.00;99.60;;;12.45;75.09;98965.56;3080475;46;20501;-67
2023/12/21 07:19:53;;;;;;;0.97;0.83;;;11.00;99.60;;;12.46;74.93;98959.25;3080374;46;20434;-68
2023/12/21 07:22:21;;;;;;;0.97;0.97;;;11.00;99.70;;;12.47;75.10;98955.59;3080648;46;20489;-68
2023/12/21 07:24:49;;;;;;;1.27;1.17;;;11.00;99.70;;;12.44;75.37;98956.03;3080983;46;20432;-68
2023/12/21 07:27:18;;;;;;;0.97;0.80;;;11.00;99.70;;;12.45;75.35;98944.47;3080386;46;21110;-66
2023/12/21 07:29:46;;;;;;;1.67;1.13;;;11.00;99.70;;;12.46;75.21;98941.59;3080783;46;20566;-68
2023/12/21 07:32:15;;;;;;;0.70;0.70;;;11.00;99.70;;;12.47;75.13;98942.41;3080921;46;20436;-68
2023/12/21 07:34:43;;;;;;;1.03;0.80;;;11.00;99.70;;;12.48;75.08;98934.25;3080913;46;20582;-68
2023/12/21 07:37:16;;;;;;;0.80;0.80;;;11.00;99.70;;;12.50;75.19;98928.75;3080251;46;20440;-67
2023/12/21 07:39:44;;;;;;;1.03;1.00;;;11.00;99.70;;;12.52;75.21;98921.41;3080705;46;20428;-68
2023/12/21 07:42:13;;;;;;;0.87;0.87;;;11.00;99.70;;;12.52;75.09;98914.28;3079747;46;20546;-68
2023/12/21 07:44:41;;;;;;;1.70;0.83;;;11.00;99.70;;;12.53;75.06;98929.06;3080382;46;20520;-68
2023/12/21 07:47:10;;;;;;;1.97;1.13;;;11.10;99.70;;;12.55;75.05;98934.13;3079818;46;20580;-65
2023/12/21 07:49:38;;;;;;;0.90;0.90;;;11.10;99.70;;;12.56;75.19;98935.72;3080033;46;20433;-68
2023/12/21 07:52:07;;;;;;;1.70;1.00;;;11.10;99.70;;;12.55;74.96;98928.84;3079771;46;20455;-67
2023/12/21 07:54:35;;;;;;;2.37;1.73;;;11.00;99.60;;;12.57;74.98;98932.06;3080561;46;20455;-68
2023/12/21 07:57:04;;;;;;;1.00;1.00;;;11.10;99.70;;;12.57;74.92;98932.06;3079807;46;20443;-67
2023/12/21 07:59:32;;;;;;;1.20;1.20;;;11.10;99.70;;;12.56;74.85;98922.53;3080371;46;20514;-68
2023/12/21 08:02:01;;;;;;;1.10;1.00;;;11.10;99.70;;;12.55;74.90;98913.03;3080585;46;20459;-68
2023/12/21 08:04:31;;;;;;;2.70;1.13;;;11.10;99.60;;;12.54;75.30;98916.69;3080532;46;20428;-69
2023/12/21 08:07:01;;;;;;;2.33;1.37;;;11.10;99.60;;;12.53;74.85;98899.22;3079710;46;20534;-68
2023/12/21 08:09:30;;;;;;;1.10;1.00;;;11.10;99.50;;;12.53;75.36;98899.22;3080083;46;21020;-68
2023/12/21 08:11:58;;;;;;;1.63;1.23;;;11.10;99.50;;;12.52;74.86;98906.38;3080297;46;21084;-68
2023/12/21 08:14:28;;;;;;;2.37;1.43;;;11.10;99.50;;;12.54;74.98;98906.13;3081343;46;20460;-68
2023/12/21 08:16:59;;;;;;;1.23;1.10;;;11.20;99.60;;;12.53;74.99;98893.97;3081288;46;20497;-68
2023/12/21 08:19:27;;;;;;;2.33;1.70;;;11.10;99.50;;;12.54;75.26;98883.19;3082002;46;20447;-68
2023/12/21 08:21:56;;;;;;;4.33;2.53;;;11.10;99.50;;;12.56;75.16;98880.31;3082299;46;20539;-68
2023/12/21 08:24:24;;;;;;;1.60;1.50;;;11.10;99.50;;;12.55;75.08;98876.09;3082557;46;20560;-68
2023/12/21 08:26:54;;;;;;;2.80;1.40;;;11.10;99.50;;;12.56;75.02;98867.91;3081888;46;20484;-66
2023/12/21 08:29:22;;;;;;;4.10;1.60;;;11.10;99.40;;;12.53;74.76;98862.28;3082198;46;20428;-67
2023/12/21 08:31:51;;;;;;;3.17;1.50;;;11.20;99.70;;;12.55;75.13;98854.97;3082034;46;21061;-68
2023/12/21 08:34:22;;;;;;;3.17;1.20;;;11.10;99.40;;;12.56;74.65;98864.47;3081909;46;21098;-68
2023/12/21 08:36:50;;;;;;;2.13;1.17;;;11.20;99.40;;;12.57;75.00;98831.78;3081855;46;20492;-68
2023/12/21 08:39:19;;;;;;;1.50;1.00;;;11.20;99.40;;;12.60;75.01;98824.19;3082017;46;20545;-69
2023/12/21 08:41:47;;;;;;;4.50;1.53;;;11.20;99.40;;;12.62;74.90;98819.47;3080925;46;20440;-68
2023/12/21 08:44:16;;;;;;;1.93;1.03;;;11.20;99.50;;;12.65;74.95;98812.91;3081890;46;20562;-68
2023/12/21 08:46:44;;;;;;;1.80;0.97;;;11.20;99.40;;;12.65;74.65;98807.63;3081607;46;20431;-68
2023/12/21 08:49:15;;;;;;;1.43;0.90;;;11.20;99.40;;;12.64;74.77;98790.22;3081883;46;20490;-69
2023/12/21 08:51:43;;;;;;;1.93;0.93;;;11.20;99.40;;;12.67;74.77;98797.69;3081877;46;20450;-68
2023/12/21 08:54:13;;;;;;;3.30;1.20;;;11.20;99.30;;;12.67;74.41;98797.69;3081630;46;21031;-67
2023/12/21 08:56:45;;;;;;;1.60;0.87;;;11.30;99.30;;;12.68;74.51;98791.34;3081717;46;20988;-68
2023/12/21 08:59:13;;;;;;;2.37;1.20;;;11.30;99.20;;;12.70;74.44;98786.63;3081008;43;20431;-68
2023/12/21 09:01:42;;;;;;;1.47;1.00;;;11.30;99.20;;;12.71;74.46;98769.75;3081864;46;20460;-67
2023/12/21 09:04:10;;;;;;;1.23;1.00;;;11.30;99.20;;;12.75;74.50;98755.03;3082107;46;20567;-68
2023/12/21 09:06:39;;;;;;;1.67;1.00;;;11.30;99.20;;;12.75;74.13;98757.69;3081715;46;20997;-68
2023/12/21 09:09:07;;;;;;;1.43;1.03;;;11.40;99.30;;;12.78;74.45;98751.94;3081807;46;20451;-68
2023/12/21 09:11:36;;;;;;;1.23;0.90;;;11.40;99.30;;;12.78;74.41;98744.00;3082204;46;20457;-68
2023/12/21 09:14:04;;;;;;;3.30;1.03;;;11.30;99.20;;;12.77;74.31;98745.03;3082067;46;20431;-70
2023/12/21 09:16:34;;;;;;;1.63;0.90;;;11.40;99.30;;;12.77;74.19;98732.66;3080485;46;20432;-68
2023/12/21 09:19:02;;;;;;;0.97;0.80;;;11.30;99.30;;;12.77;74.28;98732.66;3081515;46;20541;-68
2023/12/21 09:21:31;;;;;;;2.43;1.00;;;11.40;99.30;;;12.77;74.58;98721.28;3081917;46;20428;-67
2023/12/21 09:24:00;;;;;;;1.40;1.10;;;11.30;99.30;;;12.80;74.65;98723.44;3081595;46;20488;-68
2023/12/21 09:26:28;;;;;;;1.83;0.80;;;11.40;99.40;;;12.80;74.69;98724.25;3080749;46;20523;-67
2023/12/21 09:28:56;;;;;;;1.20;0.83;;;11.40;99.50;;;12.79;74.82;98713.91;3081991;46;20448;-68
2023/12/21 09:31:25;;;;;;;0.50;0.50;;;11.40;99.40;;;12.78;74.77;98707.06;3081593;46;20537;-68
2023/12/21 09:34:07;;;;;;;1.53;0.73;;;11.40;99.40;;;12.76;74.69;98694.09;3081893;46;21025;-66
2023/12/21 09:36:36;;;;;;;1.23;0.60;;;11.40;99.50;;;12.76;75.04;98682.75;3080678;46;20553;-68
2023/12/21 09:39:07;;;;;;;1.03;0.70;;;11.40;99.50;;;12.77;75.22;98673.78;3080735;43;20432;-67
2023/12/21 09:41:36;;;;;;;0.63;0.47;;;11.40;99.60;;;12.79;74.72;98655.84;3080819;46;20436;-69
2023/12/21 09:44:20;;;;;;;1.00;0.60;;;11.30;99.60;;;12.81;75.10;98664.34;3081277;46;20428;-68
2023/12/21 09:46:49;;;;;;;0.73;0.70;;;11.30;99.70;;;12.82;75.00;98665.94;3080211;46;20444;-68
2023/12/21 09:49:20;;;;;;;0.70;0.57;;;11.40;99.70;;;12.82;74.73;98661.47;3080230;46;20553;-68
2023/12/21 09:51:51;;;;;;;0.83;0.70;;;11.40;99.60;;;12.83;75.09;98646.44;3080449;43;20439;-68
2023/12/21 09:54:22;;;;;;;2.43;0.70;;;11.40;99.70;;;12.84;75.09;98640.09;3080918;46;20431;-68
2023/12/21 09:56:51;;;;;;;0.73;0.50;;;11.40;99.70;;;12.86;75.01;98628.25;3080298;46;20444;-68
2023/12/21 09:59:55;;;;;;;0.90;0.50;;;11.40;99.70;;;12.86;74.72;98624.81;3081417;46;21128;-68
2023/12/21 10:02:27;;;;;;;1.03;0.60;;;11.40;99.70;;;12.86;75.07;98620.31;3080667;46;20471;-67
2023/12/21 10:04:56;;;;;;;0.70;0.60;;;11.40;99.80;;;12.88;75.15;98617.47;3080633;46;20542;-68
2023/12/21 10:07:26;;;;;;;0.90;0.60;;;11.40;99.80;;;12.89;74.72;98619.84;3079654;46;20598;-68
2023/12/21 10:09:54;;;;;;;2.20;0.90;;;11.40;99.80;;;12.92;75.09;98602.72;3080760;46;21025;-68
2023/12/21 10:12:24;;;;;;;0.50;0.50;;;11.40;99.80;;;12.93;74.92;98601.69;3081405;46;20448;-68
2023/12/21 10:14:59;;;;;;;0.60;0.57;;;11.40;99.80;;;12.91;75.17;98583.44;3081202;46;20511;-68
2023/12/21 10:17:28;;;;;;;0.60;0.60;;;11.50;99.80;;;12.91;75.00;98585.28;3080786;46;20444;-68
2023/12/21 10:19:56;;;;;;;1.30;0.60;;;11.50;99.80;;;12.92;75.04;98565.75;3081245;46;20433;-68
2023/12/21 10:22:26;;;;;;;0.80;0.40;;;11.40;99.80;;;12.93;75.17;98554.19;3081325;46;21076;-68
2023/12/21 10:24:55;;;;;;;1.07;0.60;;;11.40;99.80;;;12.91;74.94;98553.59;3081333;46;20462;-68
2023/12/21 10:27:25;;;;;;;1.80;0.60;;;11.50;99.90;;;12.92;75.16;98544.66;3080201;46;20467;-68